Terminal Aerodrome Forecast
Issued by NWS

Home | Current Version | Previous Version | Text Only | Print | Product List | Glossary On
Versions: 1 2 3 4 5 6 7 8 9 10 11 12
000
FTUS42 KGSP 220540
TAFGMU
TAF
KGMU 220540Z 2206/2306 VRB02KT P6SM FEW050
      TEMPO 2206/2209 22007KT
     FM221400 23004KT P6SM FEW040
     FM221700 22007KT P6SM SCT045=

USA.gov is the U.S. government's official web portal to all federal, state and local government web resources and services.